Time;durP1;ratioP1;P1;durP2;ratioP2;P2;SDS_P1;SDS_P2;PMS_P1;PMS_P2;Temp;Humidity;BMP_temperature;BMP_pressure;BME280_temperature;BME280_humidity;BME280_pressure;Samples;Min_cycle;Max_cycle;Signal;HPM_P1;HPM_P2
2022/06/16 00:01:23;;;;;;;6.20;4.60;;;;;;;18.87;70.71;96271.75;4934825;29;20054;-85
2022/06/16 00:03:50;;;;;;;5.75;4.22;;;;;;;18.83;70.60;96274.44;4935653;29;20056;-84
2022/06/16 00:06:17;;;;;;;7.40;4.90;;;;;;;18.82;71.08;96281.13;4918024;29;20075;-84
2022/06/16 00:08:44;;;;;;;6.65;4.63;;;;;;;18.77;71.64;96273.19;4935874;29;20040;-86
2022/06/16 00:11:19;;;;;;;5.55;4.60;;;;;;;18.76;72.17;96279.88;4986337;23;20059;-84
2022/06/16 00:13:47;;;;;;;5.55;4.25;;;;;;;18.75;71.96;96264.50;4935562;29;20111;-84
2022/06/16 00:16:14;;;;;;;5.68;4.80;;;;;;;18.74;72.17;96271.16;4934437;29;20060;-83
2022/06/16 00:18:46;;;;;;;7.32;5.10;;;;;;;18.69;71.97;96266.78;4926494;29;20035;-84
2022/06/16 00:21:14;;;;;;;6.35;4.90;;;;;;;18.63;72.03;96267.44;4932853;29;20130;-84
2022/06/16 00:23:41;;;;;;;9.70;5.07;;;;;;;18.62;72.30;96260.31;4935520;29;20063;-85
2022/06/16 00:26:13;;;;;;;6.25;4.53;;;;;;;18.61;73.51;96267.03;4933878;29;20103;-82
2022/06/16 00:28:41;;;;;;;11.30;5.40;;;;;;;18.59;72.17;96270.16;4918442;29;20148;-84
2022/06/16 00:31:09;;;;;;;8.40;5.25;;;;;;;18.54;72.09;96270.47;4934482;29;20064;-84
2022/06/16 00:33:37;;;;;;;7.45;5.05;;;;;;;18.51;72.38;96272.00;4919450;29;20511;-84
2022/06/16 00:36:04;;;;;;;7.40;5.13;;;;;;;18.48;72.41;96266.44;4916784;29;20567;-83
2022/06/16 00:38:31;;;;;;;8.32;4.75;;;;;;;18.44;72.63;96263.63;4917042;29;20109;-84
2022/06/16 00:40:59;;;;;;;6.55;4.93;;;;;;;18.42;73.18;96268.69;4917392;29;20054;-82
2022/06/16 00:43:28;;;;;;;6.10;5.20;;;;;;;18.42;73.63;96274.22;4932787;29;20111;-83
2022/06/16 00:46:00;;;;;;;5.78;4.80;;;;;;;18.40;73.55;96271.03;4917908;29;20108;-83
2022/06/16 00:48:30;;;;;;;5.63;4.75;;;;;;;18.41;74.53;96271.84;4933594;29;20051;-84
2022/06/16 00:51:06;;;;;;;8.02;5.07;;;;;;;18.41;74.69;96278.16;4933733;29;20059;-84
2022/06/16 00:53:35;;;;;;;7.47;5.78;;;;;;;18.25;73.35;96274.75;4979724;23;20044;-84
2022/06/16 00:56:02;;;;;;;8.30;5.60;;;;;;;18.16;73.12;96265.94;4932850;29;20040;-78
2022/06/16 00:58:33;;;;;;;6.75;4.85;;;;;;;18.19;73.21;96270.72;4932648;29;20048;-85
2022/06/16 01:01:04;;;;;;;8.20;4.97;;;;;;;18.19;74.13;96270.72;4931737;29;20055;-84
2022/06/16 01:06:19;;;;;;;8.65;5.32;;;;;;;18.15;75.20;96272.59;4931991;29;20485;-84
2022/06/16 01:08:48;;;;;;;7.78;5.63;;;;;;;18.08;74.60;96270.53;4916995;29;20084;-84
2022/06/16 01:14:10;;;;;;;7.88;6.10;;;;;;;17.76;74.69;96266.44;4933534;29;20088;-85
2022/06/16 01:16:45;;;;;;;8.82;5.80;;;;;;;17.84;74.28;96266.19;4933540;29;20064;-83
2022/06/16 01:19:41;;;;;;;8.10;5.70;;;;;;;17.91;74.57;96271.03;4980802;23;20055;-83
2022/06/16 01:22:16;;;;;;;8.88;6.13;;;;;;;17.93;74.67;96275.00;4933124;29;20052;-84
2022/06/16 01:24:55;;;;;;;9.45;6.13;;;;;;;17.93;75.79;96265.94;4930936;23;20063;-84
2022/06/16 01:29:58;;;;;;;10.55;6.68;;;;;;;17.83;74.89;96256.34;4954074;23;20056;-85
2022/06/16 01:32:37;;;;;;;9.30;6.78;;;;;;;17.73;75.12;96259.69;4915729;29;20055;-85
2022/06/16 01:35:13;;;;;;;9.15;5.65;;;;;;;17.81;74.93;96266.16;4915688;29;20052;-83
2022/06/16 01:37:49;;;;;;;6.82;5.45;;;;;;;17.87;75.18;96254.44;4932224;29;20108;-84
2022/06/16 01:40:22;;;;;;;8.85;6.88;;;;;;;17.69;75.25;96254.09;4932554;29;20123;-84
2022/06/16 01:42:55;;;;;;;7.18;6.00;;;;;;;17.72;75.44;96249.81;4932299;29;20063;-84
2022/06/16 01:45:30;;;;;;;8.18;6.00;;;;;;;17.74;75.35;96250.28;4932574;29;20120;-83
2022/06/16 01:47:59;;;;;;;7.57;5.45;;;;;;;17.76;75.24;96250.72;4933811;29;20120;-84
2022/06/16 01:50:32;;;;;;;7.15;5.45;;;;;;;17.75;75.24;96251.88;4931290;29;20049;-84
2022/06/16 01:53:05;;;;;;;10.75;6.55;;;;;;;17.62;75.17;96253.97;4933745;29;20056;-84
2022/06/16 01:55:33;;;;;;;;;;;;;;;17.73;75.65;96256.94;4957030;23;20043;-84
2022/06/16 01:58:05;;;;;;;7.95;5.60;;;;;;;17.80;76.50;96259.84;4952411;29;19937;-84
2022/06/16 02:03:05;;;;;;;9.07;6.25;;;;;;;17.78;75.40;96262.16;4893524;29;20041;-84
2022/06/16 02:05:39;;;;;;;8.82;6.10;;;;;;;17.73;75.07;96266.00;4892197;29;20520;-81
2022/06/16 02:08:10;;;;;;;7.90;5.68;;;;;;;17.77;74.76;96263.31;4890812;29;20045;-84
2022/06/16 02:10:42;;;;;;;7.60;5.80;;;;;;;17.72;74.69;96263.59;4892800;29;20495;-83
2022/06/16 02:13:12;;;;;;;6.32;5.20;;;;;;;17.80;74.95;96261.78;4879831;29;20041;-84
2022/06/16 02:15:47;;;;;;;7.10;5.40;;;;;;;17.84;75.18;96265.41;4888251;29;20049;-84
2022/06/16 02:18:19;;;;;;;8.85;6.20;;;;;;;17.81;74.58;96261.44;4895188;29;20169;-83
2022/06/16 02:20:53;;;;;;;9.05;5.50;;;;;;;17.83;74.67;96264.59;4896739;29;20052;-83
2022/06/16 02:23:20;;;;;;;6.25;5.32;;;;;;;17.84;75.49;96262.63;4881762;29;20061;-82
2022/06/16 02:25:51;;;;;;;6.70;5.38;;;;;;;17.77;75.57;96260.56;4891039;29;20053;-84
2022/06/16 02:28:18;;;;;;;6.50;5.22;;;;;;;17.79;76.44;96258.22;4888816;29;20045;-83
2022/06/16 02:30:59;;;;;;;6.95;5.40;;;;;;;17.76;76.87;96253.47;4873654;29;20638;-82
2022/06/16 02:33:39;;;;;;;7.57;5.80;;;;;;;17.76;76.29;96258.97;4893823;29;20060;-83
2022/06/16 02:36:22;;;;;;;6.25;5.50;;;;;;;17.73;75.95;96259.69;4889987;29;20065;-82
2022/06/16 02:39:00;;;;;;;9.25;5.85;;;;;;;17.65;75.67;96266.22;4868399;29;20580;-82
2022/06/16 02:41:38;;;;;;;9.85;6.00;;;;;;;17.54;75.53;96273.47;4880779;29;20064;-83
2022/06/16 02:44:13;;;;;;;7.78;5.13;;;;;;;17.62;75.22;96269.69;4890171;29;20068;-81
2022/06/16 02:46:53;;;;;;;7.32;5.55;;;;;;;17.67;75.37;96272.16;4890482;29;20053;-85
2022/06/16 02:49:29;;;;;;;9.68;6.18;;;;;;;17.60;75.93;96277.53;4891192;29;20135;-82
2022/06/16 02:52:10;;;;;;;8.15;5.90;;;;;;;17.50;75.48;96273.41;4873589;29;20083;-82
2022/06/16 02:54:47;;;;;;;6.75;5.65;;;;;;;17.39;75.82;96278.72;4888983;29;20049;-82
2022/06/16 02:57:21;;;;;;;9.60;5.72;;;;;;;17.48;75.75;96268.25;4889527;29;20053;-81
2022/06/16 02:59:51;;;;;;;6.70;5.38;;;;;;;17.53;76.00;96271.88;4887560;29;20049;-82
2022/06/16 03:02:20;;;;;;;8.00;5.43;;;;;;;17.51;76.25;96280.50;4888268;29;20425;-82
2022/06/16 03:04:52;;;;;;;9.48;5.90;;;;;;;17.37;75.49;96270.03;4887375;29;20063;-83
2022/06/16 03:07:19;;;;;;;7.28;5.50;;;;;;;17.26;76.02;96260.75;4889614;29;20113;-82
2022/06/16 03:09:46;;;;;;;9.85;5.60;;;;;;;17.28;75.56;96252.97;4888907;29;20751;-82
2022/06/16 03:12:15;;;;;;;9.77;5.15;;;;;;;17.26;75.03;96247.00;4888733;29;20060;-82
2022/06/16 03:14:43;;;;;;;6.63;5.15;;;;;;;17.30;75.09;96236.88;4872738;29;20082;-81
2022/06/16 03:17:11;;;;;;;8.93;4.90;;;;;;;17.30;74.96;96234.13;4887999;29;20057;-81
2022/06/16 03:19:38;;;;;;;9.40;5.10;;;;;;;17.31;75.19;96230.19;4887591;29;20049;-82
2022/06/16 03:22:07;;;;;;;10.40;5.28;;;;;;;17.33;74.91;96236.16;4888016;29;20428;-82
2022/06/16 03:24:33;;;;;;;6.35;4.70;;;;;;;17.29;74.08;96234.50;4888461;29;20586;-82
2022/06/16 03:27:00;;;;;;;12.15;5.22;;;;;;;17.21;73.82;96239.03;4888943;29;20059;-83
2022/06/16 03:29:27;;;;;;;5.55;4.70;;;;;;;17.28;73.93;96232.88;4867580;29;20067;-82
2022/06/16 03:31:54;;;;;;;10.60;4.40;;;;;;;17.29;74.28;96227.03;4888287;29;20489;-83
2022/06/16 03:34:21;;;;;;;6.57;4.45;;;;;;;17.34;74.53;96231.44;4870215;29;20053;-82
2022/06/16 03:36:49;;;;;;;5.65;4.53;;;;;;;17.31;75.16;96232.94;4887817;29;20056;-82
2022/06/16 03:39:18;;;;;;;6.30;4.70;;;;;;;17.32;74.88;96228.22;4886489;29;20052;-82
2022/06/16 03:41:44;;;;;;;5.90;4.32;;;;;;;17.30;74.74;96236.88;4887227;29;20053;-82
2022/06/16 03:44:11;;;;;;;8.65;4.88;;;;;;;17.24;74.02;96243.84;4887210;29;20061;-82
2022/06/16 03:46:37;;;;;;;8.48;4.90;;;;;;;17.22;74.05;96240.63;4886912;29;20048;-82
2022/06/16 03:49:07;;;;;;;5.50;4.10;;;;;;;17.26;73.54;96236.00;4887761;29;20052;-82
2022/06/16 03:51:34;;;;;;;5.85;4.15;;;;;;;17.32;74.52;96240.03;4878438;29;20052;-82
2022/06/16 03:54:01;;;;;;;6.93;4.45;;;;;;;17.32;74.77;96240.03;4887264;29;20053;-83
2022/06/16 03:56:29;;;;;;;6.38;5.25;;;;;;;17.20;74.38;96237.47;4870567;29;20045;-83
2022/06/16 03:58:56;;;;;;;8.27;4.60;;;;;;;17.24;73.94;96227.31;4885055;29;20049;-82
2022/06/16 04:01:24;;;;;;;8.98;5.05;;;;;;;17.25;73.97;96228.91;4883426;29;20049;-83
2022/06/16 04:04:02;;;;;;;6.30;4.35;;;;;;;17.28;73.74;96228.19;4886191;29;20053;-80
2022/06/16 04:06:30;;;;;;;8.43;4.85;;;;;;;17.33;73.94;96227.91;4883525;29;20072;-81
2022/06/16 04:08:57;;;;;;;8.55;4.85;;;;;;;17.40;74.52;96229.97;4883281;29;20064;-82
2022/06/16 04:11:30;;;;;;;6.85;4.43;;;;;;;17.44;75.06;96231.63;4882867;29;20072;-82
2022/06/16 04:14:02;;;;;;;6.28;4.63;;;;;;;17.46;75.61;96237.56;4885113;29;20060;-83
2022/06/16 04:16:31;;;;;;;7.68;5.13;;;;;;;17.47;75.43;96236.38;4868565;29;20527;-83
2022/06/16 04:18:58;;;;;;;7.25;5.05;;;;;;;17.43;74.54;96235.53;4886270;29;20056;-82
2022/06/16 04:21:25;;;;;;;8.88;4.97;;;;;;;17.51;73.93;96235.69;4885688;29;20041;-82
2022/06/16 04:23:52;;;;;;;5.60;4.82;;;;;;;17.55;72.80;96233.78;4883161;29;20053;-81
2022/06/16 04:26:20;;;;;;;5.30;4.30;;;;;;;17.57;71.55;96242.47;4885025;29;20440;-82
2022/06/16 04:28:47;;;;;;;7.35;4.80;;;;;;;17.51;70.80;96235.69;4886532;29;20088;-83
2022/06/16 04:31:15;;;;;;;5.88;4.32;;;;;;;17.60;70.03;96244.50;4886052;29;20088;-83
2022/06/16 04:33:42;;;;;;;9.25;4.30;;;;;;;17.68;69.58;96244.25;4886024;29;20041;-83
2022/06/16 04:36:09;;;;;;;5.38;4.25;;;;;;;17.79;68.97;96252.72;4885384;29;20543;-82
2022/06/16 04:38:36;;;;;;;6.85;4.18;;;;;;;17.90;69.57;96242.69;4885048;29;20060;-82
2022/06/16 04:41:02;;;;;;;8.23;4.10;;;;;;;18.00;70.41;96246.78;4884492;29;20053;-81
2022/06/16 04:43:30;;;;;;;4.75;4.10;;;;;;;18.06;70.73;96250.81;4870766;29;20052;-82
2022/06/16 04:45:57;;;;;;;5.75;4.13;;;;;;;18.13;70.13;96244.63;4887551;29;20057;-82
2022/06/16 04:48:25;;;;;;;5.30;4.18;;;;;;;18.11;69.50;96241.44;4887183;29;20081;-83
2022/06/16 04:50:52;;;;;;;5.47;3.92;;;;;;;18.18;68.71;96236.06;4887895;29;20049;-81
2022/06/16 04:53:19;;;;;;;6.22;4.15;;;;;;;18.27;68.83;96233.84;4887089;29;20060;-83
2022/06/16 04:55:53;;;;;;;5.72;3.97;;;;;;;18.31;69.50;96231.91;4887212;29;20049;-83
2022/06/16 04:58:20;;;;;;;7.63;4.22;;;;;;;18.36;69.08;96237.09;4887645;29;20040;-83
2022/06/16 05:00:47;;;;;;;7.50;3.75;;;;;;;18.35;68.37;96235.53;4888007;29;20056;-83
2022/06/16 05:03:14;;;;;;;9.35;4.45;;;;;;;18.37;67.71;96244.22;4888744;29;20052;-82
2022/06/16 05:05:41;;;;;;;5.32;3.90;;;;;;;18.45;68.21;96245.91;4888498;29;20060;-82
2022/06/16 05:08:08;;;;;;;5.22;3.70;;;;;;;18.54;69.44;96242.09;4871630;29;20057;-82
2022/06/16 05:10:35;;;;;;;6.45;4.20;;;;;;;18.61;70.12;96239.44;4888821;29;20154;-84
2022/06/16 05:13:03;;;;;;;5.35;4.00;;;;;;;18.62;70.24;96238.25;4889270;29;20532;-80
2022/06/16 05:15:31;;;;;;;5.03;4.00;;;;;;;18.62;68.32;96236.31;4889721;29;20055;-82
2022/06/16 05:18:02;;;;;;;5.88;3.97;;;;;;;18.60;67.91;96248.88;4872425;29;20053;-83
2022/06/16 05:20:28;;;;;;;6.32;3.92;;;;;;;18.70;67.46;96256.53;4887019;29;20462;-84
2022/06/16 05:22:56;;;;;;;8.60;4.38;;;;;;;18.79;67.29;96257.03;4890009;29;20049;-84
2022/06/16 05:25:23;;;;;;;7.53;4.10;;;;;;;18.87;67.00;96261.50;4890046;29;20052;-84
2022/06/16 05:27:49;;;;;;;9.93;4.30;;;;;;;18.74;67.71;96262.88;4875100;29;20049;-83
2022/06/16 05:30:16;;;;;;;6.90;4.05;;;;;;;18.82;67.90;96264.59;4890596;29;20045;-84
2022/06/16 05:32:43;;;;;;;6.53;4.00;;;;;;;18.90;68.02;96260.75;4891557;29;20053;-84
2022/06/16 05:35:19;;;;;;;9.90;4.03;;;;;;;18.98;67.46;96256.13;4890287;29;20053;-83
2022/06/16 05:37:45;;;;;;;5.90;3.80;;;;;;;19.08;66.94;96274.78;4889116;29;20053;-83
2022/06/16 05:40:13;;;;;;;6.60;3.95;;;;;;;19.15;65.81;96272.09;4891073;29;20049;-84
2022/06/16 05:42:41;;;;;;;4.95;3.67;;;;;;;19.13;65.62;96265.38;4891350;29;20053;-82
2022/06/16 05:45:10;;;;;;;5.85;3.83;;;;;;;19.30;65.63;96278.59;4892475;29;20045;-84
2022/06/16 05:47:37;;;;;;;5.00;3.63;;;;;;;19.43;66.13;96274.41;4892084;29;20553;-82
2022/06/16 05:50:05;;;;;;;6.18;3.95;;;;;;;19.53;65.81;96276.50;4895113;29;20053;-83
2022/06/16 05:55:23;;;;;;;5.53;4.00;;;;;;;19.75;66.07;96282.28;4893275;29;20100;-84
2022/06/16 05:57:49;;;;;;;4.70;3.60;;;;;;;19.92;65.59;96281.66;4894905;29;20064;-83
2022/06/16 06:00:16;;;;;;;6.22;3.33;;;;;;;19.98;65.38;96279.34;4897817;29;20037;-85
2022/06/16 06:02:43;;;;;;;8.30;3.70;;;;;;;19.93;63.96;96283.25;4898905;29;20049;-84
2022/06/16 06:05:12;;;;;;;7.53;3.95;;;;;;;19.91;63.69;96285.59;4917682;23;20056;-78
2022/06/16 06:18:18;;;;;;;6.85;3.63;;;;;;;20.22;66.46;96302.88;4942370;28;20051;-84
2022/06/16 06:23:13;;;;;;;6.40;3.60;;;;;;;20.48;65.12;96293.63;4974210;23;20044;-83
2022/06/16 06:25:42;;;;;;;7.88;4.30;;;;;;;20.62;64.75;96303.97;5181102;23;20031;-84
2022/06/16 06:28:12;;;;;;;7.13;4.10;;;;;;;20.71;63.72;96304.44;4958541;29;20043;-86
2022/06/16 06:30:39;;;;;;;6.80;4.30;;;;;;;20.92;63.27;96310.13;4943045;29;20051;-87
2022/06/16 06:33:06;;;;;;;6.32;3.83;;;;;;;21.10;64.11;96299.94;4957354;29;20059;-86
2022/06/16 06:35:33;;;;;;;6.15;3.70;;;;;;;21.15;61.70;96293.25;5108442;23;20010;-86
2022/06/16 06:38:00;;;;;;;9.30;4.10;;;;;;;21.23;62.85;96294.06;4939557;29;20143;-86
2022/06/16 06:40:31;;;;;;;8.23;3.80;;;;;;;21.28;62.67;96290.94;4903590;29;20053;-86
2022/06/16 06:42:59;;;;;;;7.85;4.05;;;;;;;21.26;60.27;96280.25;4923227;29;20044;-85
2022/06/16 06:50:35;;;;;;;6.60;3.72;;;;;;;21.57;59.49;96287.13;5015412;23;20064;-87
2022/06/16 06:53:02;;;;;;;6.65;4.13;;;;;;;21.63;59.83;96287.53;4993780;23;20477;-79
2022/06/16 06:55:29;;;;;;;9.60;4.30;;;;;;;21.65;61.04;96284.34;4934314;28;20048;-84
2022/06/16 06:57:57;;;;;;;8.98;4.25;;;;;;;21.76;61.36;96293.50;4936434;29;20103;-84
2022/06/16 07:03:10;;;;;;;8.88;4.10;;;;;;;22.05;62.02;96297.91;5442432;23;20039;-82
2022/06/16 07:08:02;;;;;;;7.88;4.72;;;;;;;22.13;59.70;96295.97;5176727;23;20036;-78
2022/06/16 07:10:29;;;;;;;8.13;4.25;;;;;;;22.11;59.50;96301.91;5627099;23;20032;-86
2022/06/16 07:12:56;;;;;;;10.45;5.13;;;;;;;22.06;60.43;96293.16;4912597;29;20044;-86
2022/06/16 07:15:23;;;;;;;6.70;4.47;;;;;;;22.09;62.34;96295.16;4901450;29;20051;-86
2022/06/16 07:17:50;;;;;;;8.45;4.65;;;;;;;22.19;60.52;96282.53;4916007;29;20053;-86
2022/06/16 07:20:19;;;;;;;9.13;4.68;;;;;;;22.30;61.12;96277.75;4913727;29;20048;-85
2022/06/16 07:22:46;;;;;;;9.73;4.63;;;;;;;22.16;58.25;96291.63;4914809;29;20116;-84
2022/06/16 07:25:13;;;;;;;9.15;4.47;;;;;;;22.28;59.01;96286.47;4918557;29;20036;-83
2022/06/16 07:32:57;;;;;;;9.85;4.65;;;;;;;22.43;58.92;96301.13;5077822;23;20064;-78
2022/06/16 07:35:27;;;;;;;9.80;4.40;;;;;;;22.30;58.53;96313.81;4933977;29;20048;-85
2022/06/16 07:37:53;;;;;;;6.32;4.22;;;;;;;22.30;59.50;96297.19;4932833;28;20084;-86
2022/06/16 07:40:22;;;;;;;8.55;4.90;;;;;;;22.44;60.39;96299.94;4944776;23;20052;-89
2022/06/16 07:42:50;;;;;;;10.55;4.57;;;;;;;22.56;60.79;96305.09;4934305;29;20095;-85
2022/06/16 07:48:02;;;;;;;7.50;4.57;;;;;;;22.61;60.47;96324.13;4902031;29;20077;-87
2022/06/16 07:51:10;;;;;;;6.72;4.38;;;;;;;22.62;62.27;96317.38;4904859;29;20028;-85
2022/06/16 07:53:37;;;;;;;6.28;4.28;;;;;;;22.53;61.19;96316.19;4887356;29;20132;-86
2022/06/16 07:58:49;;;;;;;5.82;4.28;;;;;;;22.63;61.55;96307.88;4917422;29;20096;-86
2022/06/16 08:01:17;;;;;;;11.02;5.10;;;;;;;22.45;60.85;96300.72;4919111;29;20068;-87
2022/06/16 08:03:50;;;;;;;10.43;4.60;;;;;;;22.30;61.23;96294.41;4918492;29;20060;-87
2022/06/16 08:06:23;;;;;;;10.27;4.25;;;;;;;22.45;61.65;96301.53;4924238;23;20047;-87
2022/06/16 08:08:49;;;;;;;;;;;;;;;22.44;62.45;96294.38;4923157;29;20095;-86
2022/06/16 08:13:58;;;;;;;7.90;4.28;;;;;;;22.64;62.48;96300.31;4938316;29;20052;-86
2022/06/16 08:16:25;;;;;;;10.20;4.38;;;;;;;22.71;61.68;96296.75;5608473;23;20092;-86
2022/06/16 08:18:52;;;;;;;9.18;4.80;;;;;;;22.60;62.50;96289.25;4920682;29;20040;-85
2022/06/16 08:21:21;;;;;;;8.20;4.18;;;;;;;22.66;62.29;96295.97;4935372;29;20055;-86
2022/06/16 08:23:48;;;;;;;8.50;4.72;;;;;;;22.96;62.43;96300.31;4937967;29;20107;-86
2022/06/16 08:26:15;;;;;;;10.30;4.80;;;;;;;22.90;62.06;96299.91;4937420;29;20480;-86
2022/06/16 08:28:46;;;;;;;9.15;4.97;;;;;;;22.82;62.94;96300.31;4921046;29;20048;-84
2022/06/16 08:31:13;;;;;;;8.50;4.70;;;;;;;22.94;61.72;96307.47;4934211;29;20054;-85
2022/06/16 08:36:11;;;;;;;6.85;4.15;;;;;;;23.24;61.92;96305.00;4898324;29;20040;-87
2022/06/16 08:38:40;;;;;;;10.80;4.40;;;;;;;23.40;63.86;96304.56;4869525;29;20033;-86
2022/06/16 08:41:15;;;;;;;9.35;4.70;;;;;;;23.67;63.39;96300.09;4868474;29;20055;-83
2022/06/16 08:43:50;;;;;;;7.25;4.88;;;;;;;23.88;62.95;96306.72;4900734;29;20041;-87
2022/06/16 08:49:02;;;;;;;7.22;4.60;;;;;;;24.57;61.00;96319.78;4958578;23;20051;-87
2022/06/16 08:51:42;;;;;;;6.47;4.35;;;;;;;24.56;56.20;96318.22;4938382;29;20131;-88
2022/06/16 08:54:28;;;;;;;9.98;4.70;;;;;;;24.83;59.25;96317.56;4906742;29;20052;-83
2022/06/16 08:57:03;;;;;;;8.13;4.78;;;;;;;24.60;55.14;96321.75;4957510;23;20079;-86
2022/06/16 08:59:36;;;;;;;12.30;4.63;;;;;;;24.53;57.82;96321.78;5874416;23;20719;-81
2022/06/16 09:04:39;;;;;;;7.38;4.28;;;;;;;24.51;57.74;96340.13;4930854;23;20048;-82
2022/06/16 09:12:22;;;;;;;10.98;3.88;;;;;;;24.35;53.60;96338.66;5874500;23;20991;-86
2022/06/16 09:17:49;;;;;;;8.13;4.05;;;;;;;24.87;55.56;96337.84;4938234;28;19930;-86
2022/06/16 09:20:23;;;;;;;10.10;4.47;;;;;;;25.08;55.32;96343.22;4919630;29;20055;-87
2022/06/16 09:23:30;;;;;;;5.05;3.83;;;;;;;25.43;51.42;96346.84;4922337;29;20048;-85
2022/06/16 09:26:15;;;;;;;6.88;3.65;;;;;;;25.57;51.77;96348.66;4923009;29;20084;-87
2022/06/16 09:28:52;;;;;;;6.25;3.90;;;;;;;25.61;51.32;96361.38;4941246;28;20080;-86
2022/06/16 09:39:22;;;;;;;8.10;4.00;;;;;;;24.90;56.89;96373.19;4961839;23;20051;-86
2022/06/16 09:44:48;;;;;;;8.68;4.40;;;;;;;24.84;60.66;96369.28;5114500;23;20080;-86
2022/06/16 09:47:20;;;;;;;6.82;4.15;;;;;;;24.92;60.33;96376.38;5252693;23;20030;-77
2022/06/16 09:49:53;;;;;;;9.38;4.50;;;;;;;25.12;56.90;96380.22;4922180;29;20072;-85
2022/06/16 09:57:35;;;;;;;12.73;4.72;;;;;;;24.85;56.50;96376.44;5887725;23;20047;-85
2022/06/16 10:00:10;;;;;;;11.35;4.88;;;;;;;24.69;58.16;96372.22;4921148;29;20116;-80
2022/06/16 10:02:42;;;;;;;7.10;4.35;;;;;;;24.55;60.15;96383.44;4918066;29;20049;-85
2022/06/16 10:05:13;;;;;;;6.68;4.57;;;;;;;24.57;56.90;96380.25;5001130;23;20058;-86
2022/06/16 10:07:47;;;;;;;8.23;4.50;;;;;;;24.34;59.63;96380.78;4924331;29;20052;-87
2022/06/16 10:10:19;;;;;;;7.30;4.70;;;;;;;24.05;59.97;96391.25;4938307;29;20054;-86
2022/06/16 10:12:57;;;;;;;8.23;5.43;;;;;;;24.13;61.30;96403.94;4937701;29;20056;-86
2022/06/16 10:15:33;;;;;;;8.88;4.93;;;;;;;23.89;60.63;96405.63;4937238;29;20050;-86
2022/06/16 10:18:00;;;;;;;7.05;4.65;;;;;;;24.04;61.71;96403.59;4922291;29;20056;-87
2022/06/16 10:20:29;;;;;;;8.07;5.22;;;;;;;23.95;60.74;96409.59;4905373;29;20058;-87
2022/06/16 10:23:02;;;;;;;8.60;5.00;;;;;;;23.82;61.20;96422.38;4937845;29;20068;-88
2022/06/16 10:25:36;;;;;;;9.90;5.20;;;;;;;23.64;61.40;96428.75;4936596;29;20048;-88
2022/06/16 10:28:21;;;;;;;10.95;4.97;;;;;;;23.47;61.57;96423.22;4936936;29;20135;-78
2022/06/16 10:30:49;;;;;;;12.57;5.47;;;;;;;23.47;63.54;96412.91;4920733;29;20063;-87
2022/06/16 10:33:19;;;;;;;7.78;4.90;;;;;;;23.58;64.72;96408.09;4936364;29;20059;-86
2022/06/16 10:38:20;;;;;;;9.52;5.55;;;;;;;23.83;65.63;96432.28;5042406;23;20050;-86
2022/06/16 10:40:48;;;;;;;9.68;5.25;;;;;;;24.15;65.18;96435.72;4939330;29;20055;-87
2022/06/16 10:43:18;;;;;;;8.07;5.25;;;;;;;24.43;66.71;96422.88;4955412;29;20044;-86
2022/06/16 10:45:59;;;;;;;8.77;4.63;;;;;;;24.80;65.00;96424.25;4923282;29;20515;-89
2022/06/16 10:48:30;;;;;;;7.63;4.72;;;;;;;24.83;58.32;96428.97;4939133;29;20047;-86
2022/06/16 10:51:09;;;;;;;9.35;4.85;;;;;;;24.70;58.33;96426.69;4955747;29;20044;-86
2022/06/16 10:53:39;;;;;;;6.80;4.90;;;;;;;24.61;58.10;96429.13;4955968;28;20036;-87
2022/06/16 10:56:10;;;;;;;10.02;4.85;;;;;;;24.91;59.50;96424.94;4954243;29;20051;-86
2022/06/16 11:01:10;;;;;;;9.45;4.28;;;;;;;25.22;57.86;96418.34;4961960;23;20063;-79
2022/06/16 11:03:43;;;;;;;7.20;4.80;;;;;;;25.52;54.75;96414.03;4958596;29;20058;-85
2022/06/16 11:06:14;;;;;;;9.30;4.88;;;;;;;25.59;55.27;96416.78;4958158;29;20084;-86
2022/06/16 11:08:45;;;;;;;8.32;4.85;;;;;;;25.77;58.46;96411.78;4956991;29;20044;-86
2022/06/16 11:11:13;;;;;;;7.47;4.13;;;;;;;25.96;55.31;96407.59;4959076;28;20035;-85
2022/06/16 11:16:24;;;;;;;9.50;4.07;;;;;;;26.07;53.95;96410.25;4920706;29;20024;-85
2022/06/16 11:26:24;;;;;;;10.57;4.60;;;;;;;25.70;48.51;96405.50;6047900;23;21016;-79
2022/06/16 11:28:54;;;;;;;6.80;4.20;;;;;;;25.63;50.69;96414.75;4897289;29;20100;-85
2022/06/16 11:31:25;;;;;;;4.65;3.45;;;;;;;25.55;49.82;96402.06;4919348;29;20116;-85
2022/06/16 11:34:09;;;;;;;5.97;3.58;;;;;;;25.50;51.71;96405.31;4918706;29;20052;-85
2022/06/16 11:37:13;;;;;;;3.65;3.30;;;;;;;25.45;51.32;96402.97;4903620;29;20043;-86
2022/06/16 11:39:51;;;;;;;5.00;3.50;;;;;;;25.36;54.26;96408.22;4921274;29;20044;-85
2022/06/16 11:42:38;;;;;;;4.47;3.50;;;;;;;25.23;51.35;96408.75;4935884;29;20067;-86
2022/06/16 11:45:11;;;;;;;4.28;3.22;;;;;;;25.28;46.88;96412.31;4936222;29;20056;-85
2022/06/16 11:47:49;;;;;;;5.88;3.42;;;;;;;25.31;50.10;96414.25;4977275;23;20049;-85
2022/06/16 11:50:25;;;;;;;10.18;3.97;;;;;;;25.25;46.48;96411.13;4899440;29;20436;-86
2022/06/16 11:53:03;;;;;;;7.43;3.63;;;;;;;25.51;51.85;96406.88;4911499;23;20032;-86
2022/06/16 11:55:36;;;;;;;7.80;4.68;;;;;;;25.56;53.29;96409.22;4918123;29;20120;-85
2022/06/16 11:58:30;;;;;;;5.57;3.83;;;;;;;25.68;47.82;96405.09;4918462;29;20116;-81
2022/06/16 12:01:03;;;;;;;5.03;3.85;;;;;;;25.77;49.23;96397.06;4913177;29;20052;-86
2022/06/16 12:03:49;;;;;;;7.15;4.20;;;;;;;25.85;49.40;96395.78;4938436;23;20052;-86
2022/06/16 12:06:30;;;;;;;9.50;4.20;;;;;;;25.91;49.31;96391.31;4937817;23;20108;-85
2022/06/16 12:09:13;;;;;;;7.65;3.97;;;;;;;26.03;51.85;96385.16;4919535;23;20030;-87
2022/06/16 12:11:45;;;;;;;6.30;4.50;;;;;;;25.97;48.92;96384.06;5092410;23;20074;-79
2022/06/16 12:14:19;;;;;;;5.83;4.00;;;;;;;26.06;49.49;96372.41;4915200;23;20083;-77
2022/06/16 12:16:54;;;;;;;6.55;3.70;;;;;;;26.24;46.73;96386.88;4905142;29;20052;-87
2022/06/16 12:19:35;;;;;;;5.55;3.72;;;;;;;26.34;44.19;96374.00;4920293;29;20037;-84
2022/06/16 12:22:10;;;;;;;6.95;3.50;;;;;;;26.29;46.59;96361.28;4921128;29;20036;-78
2022/06/16 12:27:16;;;;;;;7.43;4.03;;;;;;;26.43;44.33;96370.72;5047824;23;20046;-84
2022/06/16 12:29:51;;;;;;;7.72;4.28;;;;;;;26.53;48.50;96359.38;4940807;28;20056;-86
2022/06/16 12:38:18;;;;;;;5.55;3.72;;;;;;;26.62;43.59;96367.22;5449107;23;20069;-76
2022/06/16 12:59:23;;;;;;;7.35;4.03;;;;;;;26.84;44.74;96389.25;5712213;23;20035;-77
2022/06/16 13:22:45;;;;;;;6.10;3.33;;;;;;;27.07;42.13;96380.88;5786244;23;20056;-81
2022/06/16 13:54:14;;;;;;;4.68;2.53;;;;;;;27.44;37.86;96353.84;5217529;23;20044;-86
2022/06/16 13:56:44;;;;;;;4.60;2.85;;;;;;;27.69;38.25;96342.97;4936209;28;20492;-85
2022/06/16 14:02:07;;;;;;;5.30;2.88;;;;;;;27.52;36.68;96352.50;5375850;23;20052;-85
2022/06/16 14:04:36;;;;;;;4.32;2.55;;;;;;;27.55;37.41;96348.84;4912322;29;20040;-86
2022/06/16 14:07:07;;;;;;;4.72;2.90;;;;;;;27.38;36.75;96349.97;4972511;23;20034;-82
2022/06/16 14:12:18;;;;;;;4.22;2.63;;;;;;;27.33;37.98;96347.69;5539140;23;20047;-82
2022/06/16 14:15:06;;;;;;;4.85;2.80;;;;;;;27.28;36.66;96348.97;4919164;29;20072;-82
2022/06/16 14:17:36;;;;;;;9.02;2.63;;;;;;;27.11;37.91;96362.03;4934823;29;20123;-83
2022/06/16 14:20:08;;;;;;;5.80;2.67;;;;;;;26.96;37.58;96357.88;4926932;29;20115;-78
2022/06/16 14:27:49;;;;;;;5.93;2.92;;;;;;;26.52;40.40;96362.59;4937597;29;20041;-85
2022/06/16 14:30:20;;;;;;;12.85;3.65;;;;;;;26.59;39.25;96351.31;4938647;29;20048;-85
2022/06/16 14:32:52;;;;;;;7.20;3.20;;;;;;;26.90;37.96;96354.00;4938624;29;20476;-82
2022/06/16 14:35:26;;;;;;;6.22;3.25;;;;;;;26.71;40.06;96364.66;4937050;29;20056;-85
2022/06/16 14:38:00;;;;;;;8.50;3.67;;;;;;;26.78;37.90;96364.56;5057737;23;20680;-81
2022/06/16 14:40:33;;;;;;;8.13;3.70;;;;;;;26.66;39.42;96367.94;4919905;29;20045;-86
2022/06/16 14:43:09;;;;;;;5.63;3.00;;;;;;;26.74;40.24;96374.22;4920863;29;20040;-85
2022/06/16 14:45:40;;;;;;;6.45;3.45;;;;;;;26.32;39.98;96359.69;4919566;29;20044;-88
2022/06/16 14:48:13;;;;;;;7.55;3.13;;;;;;;26.29;40.93;96366.09;4912536;29;20053;-84
2022/06/16 14:50:44;;;;;;;4.93;3.20;;;;;;;26.36;41.55;96360.38;4916663;29;20047;-87
2022/06/16 14:53:15;;;;;;;5.85;3.47;;;;;;;26.35;41.98;96355.25;4913523;29;20064;-86
2022/06/16 14:58:12;;;;;;;4.95;3.38;;;;;;;26.57;40.15;96369.69;4920889;29;20045;-83
2022/06/16 15:03:17;;;;;;;5.32;3.03;;;;;;;26.83;41.75;96370.88;5074042;23;20051;-87